sensor_id;sensor_type;location;lat;lon;timestamp;P1;durP1;ratioP1;P2;durP2;ratioP2
82473;SDS011;72350;53.232;6.556;2024-02-28T00:00:45;37.00;;;19.77;;
82473;SDS011;72350;53.232;6.556;2024-02-28T00:03:14;37.88;;;20.67;;
82473;SDS011;72350;53.232;6.556;2024-02-28T00:05:42;37.22;;;21.85;;
82473;SDS011;72350;53.232;6.556;2024-02-28T00:08:11;36.58;;;21.20;;
82473;SDS011;72350;53.232;6.556;2024-02-28T00:10:40;38.78;;;21.08;;
82473;SDS011;72350;53.232;6.556;2024-02-28T00:13:08;34.90;;;20.38;;
82473;SDS011;72350;53.232;6.556;2024-02-28T00:15:36;37.95;;;21.38;;
82473;SDS011;72350;53.232;6.556;2024-02-28T00:18:05;39.72;;;22.02;;
82473;SDS011;72350;53.232;6.556;2024-02-28T00:20:33;37.65;;;21.55;;
82473;SDS011;72350;53.232;6.556;2024-02-28T00:23:00;40.10;;;22.15;;
82473;SDS011;72350;53.232;6.556;2024-02-28T00:25:28;37.38;;;21.45;;
82473;SDS011;72350;53.232;6.556;2024-02-28T00:27:57;44.13;;;24.13;;
82473;SDS011;72350;53.232;6.556;2024-02-28T00:30:25;40.50;;;21.92;;
82473;SDS011;72350;53.232;6.556;2024-02-28T00:32:54;41.53;;;22.35;;
82473;SDS011;72350;53.232;6.556;2024-02-28T00:35:22;38.50;;;21.27;;
82473;SDS011;72350;53.232;6.556;2024-02-28T00:37:50;38.78;;;21.52;;
82473;SDS011;72350;53.232;6.556;2024-02-28T00:40:18;39.88;;;21.65;;
82473;SDS011;72350;53.232;6.556;2024-02-28T00:42:46;46.65;;;23.58;;
82473;SDS011;72350;53.232;6.556;2024-02-28T00:45:15;43.63;;;22.88;;
82473;SDS011;72350;53.232;6.556;2024-02-28T00:47:43;36.08;;;20.02;;
82473;SDS011;72350;53.232;6.556;2024-02-28T00:50:11;33.72;;;19.58;;
82473;SDS011;72350;53.232;6.556;2024-02-28T00:52:39;32.58;;;18.27;;
82473;SDS011;72350;53.232;6.556;2024-02-28T00:55:07;34.00;;;18.33;;
82473;SDS011;72350;53.232;6.556;2024-02-28T00:57:35;33.03;;;19.17;;
82473;SDS011;72350;53.232;6.556;2024-02-28T01:00:03;32.95;;;19.40;;
82473;SDS011;72350;53.232;6.556;2024-02-28T01:02:33;31.30;;;18.48;;
82473;SDS011;72350;53.232;6.556;2024-02-28T01:05:01;33.88;;;18.75;;
82473;SDS011;72350;53.232;6.556;2024-02-28T01:07:29;31.27;;;17.45;;
82473;SDS011;72350;53.232;6.556;2024-02-28T01:09:57;35.60;;;19.02;;
82473;SDS011;72350;53.232;6.556;2024-02-28T01:12:25;32.97;;;19.15;;
82473;SDS011;72350;53.232;6.556;2024-02-28T01:14:53;37.35;;;19.48;;
82473;SDS011;72350;53.232;6.556;2024-02-28T01:17:21;35.83;;;19.38;;
82473;SDS011;72350;53.232;6.556;2024-02-28T01:19:50;35.83;;;19.52;;
82473;SDS011;72350;53.232;6.556;2024-02-28T01:22:18;38.15;;;19.23;;
82473;SDS011;72350;53.232;6.556;2024-02-28T01:24:46;34.70;;;19.73;;
82473;SDS011;72350;53.232;6.556;2024-02-28T01:27:14;30.30;;;17.95;;
82473;SDS011;72350;53.232;6.556;2024-02-28T01:29:41;30.45;;;17.17;;
82473;SDS011;72350;53.232;6.556;2024-02-28T01:32:09;34.05;;;19.08;;
82473;SDS011;72350;53.232;6.556;2024-02-28T01:34:37;31.55;;;18.35;;
82473;SDS011;72350;53.232;6.556;2024-02-28T01:37:06;36.33;;;19.50;;
82473;SDS011;72350;53.232;6.556;2024-02-28T01:39:34;31.85;;;18.48;;
82473;SDS011;72350;53.232;6.556;2024-02-28T01:42:02;31.40;;;18.63;;
82473;SDS011;72350;53.232;6.556;2024-02-28T01:44:30;32.90;;;18.70;;
82473;SDS011;72350;53.232;6.556;2024-02-28T01:46:58;33.45;;;18.23;;
82473;SDS011;72350;53.232;6.556;2024-02-28T01:49:26;32.00;;;18.25;;
82473;SDS011;72350;53.232;6.556;2024-02-28T01:51:53;31.88;;;19.02;;
82473;SDS011;72350;53.232;6.556;2024-02-28T01:54:24;32.53;;;19.45;;
82473;SDS011;72350;53.232;6.556;2024-02-28T01:56:56;33.50;;;18.83;;
82473;SDS011;72350;53.232;6.556;2024-02-28T01:59:23;32.78;;;18.08;;
82473;SDS011;72350;53.232;6.556;2024-02-28T02:01:53;32.20;;;18.95;;
82473;SDS011;72350;53.232;6.556;2024-02-28T02:04:22;34.50;;;19.70;;
82473;SDS011;72350;53.232;6.556;2024-02-28T02:06:49;38.40;;;21.83;;
82473;SDS011;72350;53.232;6.556;2024-02-28T02:09:20;31.92;;;18.38;;
82473;SDS011;72350;53.232;6.556;2024-02-28T02:11:49;35.58;;;20.17;;
82473;SDS011;72350;53.232;6.556;2024-02-28T02:14:17;34.90;;;19.45;;
82473;SDS011;72350;53.232;6.556;2024-02-28T02:16:45;36.72;;;19.10;;
82473;SDS011;72350;53.232;6.556;2024-02-28T02:19:13;37.90;;;21.25;;
82473;SDS011;72350;53.232;6.556;2024-02-28T02:21:43;35.10;;;19.85;;
82473;SDS011;72350;53.232;6.556;2024-02-28T02:24:19;35.58;;;20.00;;
82473;SDS011;72350;53.232;6.556;2024-02-28T02:26:46;35.90;;;19.73;;
82473;SDS011;72350;53.232;6.556;2024-02-28T02:29:17;35.42;;;20.55;;
82473;SDS011;72350;53.232;6.556;2024-02-28T02:31:45;37.08;;;20.25;;
82473;SDS011;72350;53.232;6.556;2024-02-28T02:34:13;33.47;;;19.90;;
82473;SDS011;72350;53.232;6.556;2024-02-28T02:36:41;39.25;;;21.38;;
82473;SDS011;72350;53.232;6.556;2024-02-28T02:39:09;35.35;;;20.33;;
82473;SDS011;72350;53.232;6.556;2024-02-28T02:41:38;33.38;;;19.17;;
82473;SDS011;72350;53.232;6.556;2024-02-28T02:44:07;41.03;;;21.45;;
82473;SDS011;72350;53.232;6.556;2024-02-28T02:46:34;36.28;;;20.88;;
82473;SDS011;72350;53.232;6.556;2024-02-28T02:49:02;38.00;;;20.13;;
82473;SDS011;72350;53.232;6.556;2024-02-28T02:51:30;39.95;;;21.38;;
82473;SDS011;72350;53.232;6.556;2024-02-28T02:53:58;37.65;;;20.98;;
82473;SDS011;72350;53.232;6.556;2024-02-28T02:56:26;38.33;;;21.08;;
82473;SDS011;72350;53.232;6.556;2024-02-28T02:58:55;36.90;;;21.10;;
82473;SDS011;72350;53.232;6.556;2024-02-28T03:01:22;34.97;;;20.30;;
82473;SDS011;72350;53.232;6.556;2024-02-28T03:03:50;35.85;;;20.70;;
82473;SDS011;72350;53.232;6.556;2024-02-28T03:06:19;36.47;;;20.95;;
82473;SDS011;72350;53.232;6.556;2024-02-28T03:08:47;37.00;;;20.52;;
82473;SDS011;72350;53.232;6.556;2024-02-28T03:11:15;37.25;;;20.00;;
82473;SDS011;72350;53.232;6.556;2024-02-28T03:13:42;37.38;;;20.35;;
82473;SDS011;72350;53.232;6.556;2024-02-28T03:16:12;38.35;;;21.70;;
82473;SDS011;72350;53.232;6.556;2024-02-28T03:18:39;38.15;;;21.25;;
82473;SDS011;72350;53.232;6.556;2024-02-28T03:21:07;36.83;;;21.10;;
82473;SDS011;72350;53.232;6.556;2024-02-28T03:23:35;36.67;;;20.05;;
82473;SDS011;72350;53.232;6.556;2024-02-28T03:26:03;35.03;;;19.75;;
82473;SDS011;72350;53.232;6.556;2024-02-28T03:28:31;35.78;;;20.08;;
82473;SDS011;72350;53.232;6.556;2024-02-28T03:30:59;31.95;;;19.55;;
82473;SDS011;72350;53.232;6.556;2024-02-28T03:33:28;38.10;;;20.77;;
82473;SDS011;72350;53.232;6.556;2024-02-28T03:35:58;37.65;;;21.13;;
82473;SDS011;72350;53.232;6.556;2024-02-28T03:38:26;37.78;;;21.00;;
82473;SDS011;72350;53.232;6.556;2024-02-28T03:40:54;33.65;;;18.92;;
82473;SDS011;72350;53.232;6.556;2024-02-28T03:43:22;37.10;;;20.23;;
82473;SDS011;72350;53.232;6.556;2024-02-28T03:45:49;33.58;;;20.35;;
82473;SDS011;72350;53.232;6.556;2024-02-28T03:48:17;33.08;;;19.38;;
82473;SDS011;72350;53.232;6.556;2024-02-28T03:50:47;34.28;;;19.75;;
82473;SDS011;72350;53.232;6.556;2024-02-28T03:53:15;33.35;;;19.52;;
82473;SDS011;72350;53.232;6.556;2024-02-28T03:55:43;39.40;;;21.10;;
82473;SDS011;72350;53.232;6.556;2024-02-28T03:58:11;36.33;;;20.27;;
82473;SDS011;72350;53.232;6.556;2024-02-28T04:00:39;38.70;;;20.60;;
82473;SDS011;72350;53.232;6.556;2024-02-28T04:03:06;35.90;;;20.23;;
82473;SDS011;72350;53.232;6.556;2024-02-28T04:05:34;36.85;;;20.00;;
82473;SDS011;72350;53.232;6.556;2024-02-28T04:08:04;38.90;;;21.08;;
82473;SDS011;72350;53.232;6.556;2024-02-28T04:10:32;38.88;;;21.80;;
82473;SDS011;72350;53.232;6.556;2024-02-28T04:13:00;39.13;;;19.85;;
82473;SDS011;72350;53.232;6.556;2024-02-28T04:15:30;38.15;;;21.60;;
82473;SDS011;72350;53.232;6.556;2024-02-28T04:17:58;40.45;;;21.77;;
82473;SDS011;72350;53.232;6.556;2024-02-28T04:20:26;37.60;;;21.27;;
82473;SDS011;72350;53.232;6.556;2024-02-28T04:22:54;38.65;;;21.45;;
82473;SDS011;72350;53.232;6.556;2024-02-28T04:25:23;37.97;;;20.50;;
82473;SDS011;72350;53.232;6.556;2024-02-28T04:27:50;34.72;;;20.00;;
82473;SDS011;72350;53.232;6.556;2024-02-28T04:30:19;36.10;;;20.95;;
82473;SDS011;72350;53.232;6.556;2024-02-28T04:32:46;36.30;;;20.75;;
82473;SDS011;72350;53.232;6.556;2024-02-28T04:35:14;38.03;;;20.90;;
82473;SDS011;72350;53.232;6.556;2024-02-28T04:37:45;37.08;;;20.50;;
82473;SDS011;72350;53.232;6.556;2024-02-28T04:40:13;36.88;;;20.45;;
82473;SDS011;72350;53.232;6.556;2024-02-28T04:42:43;39.50;;;21.85;;
82473;SDS011;72350;53.232;6.556;2024-02-28T04:45:11;36.78;;;19.80;;
82473;SDS011;72350;53.232;6.556;2024-02-28T04:47:39;43.90;;;21.95;;
82473;SDS011;72350;53.232;6.556;2024-02-28T04:50:10;40.35;;;20.33;;
82473;SDS011;72350;53.232;6.556;2024-02-28T04:52:39;41.28;;;21.30;;
82473;SDS011;72350;53.232;6.556;2024-02-28T04:55:07;37.45;;;20.67;;
82473;SDS011;72350;53.232;6.556;2024-02-28T04:57:35;40.88;;;22.33;;
82473;SDS011;72350;53.232;6.556;2024-02-28T05:00:05;38.55;;;20.23;;
82473;SDS011;72350;53.232;6.556;2024-02-28T05:02:34;34.97;;;19.98;;
82473;SDS011;72350;53.232;6.556;2024-02-28T05:05:02;36.50;;;21.27;;
82473;SDS011;72350;53.232;6.556;2024-02-28T05:07:30;36.83;;;21.25;;
82473;SDS011;72350;53.232;6.556;2024-02-28T05:09:58;37.03;;;20.48;;
82473;SDS011;72350;53.232;6.556;2024-02-28T05:12:26;39.20;;;21.80;;
82473;SDS011;72350;53.232;6.556;2024-02-28T05:14:54;36.88;;;20.75;;
82473;SDS011;72350;53.232;6.556;2024-02-28T05:17:23;39.45;;;20.33;;
82473;SDS011;72350;53.232;6.556;2024-02-28T05:19:51;39.08;;;20.92;;
82473;SDS011;72350;53.232;6.556;2024-02-28T05:22:19;37.10;;;20.40;;
82473;SDS011;72350;53.232;6.556;2024-02-28T05:24:47;37.80;;;21.13;;
82473;SDS011;72350;53.232;6.556;2024-02-28T05:27:15;36.60;;;20.65;;
82473;SDS011;72350;53.232;6.556;2024-02-28T05:29:43;36.92;;;21.48;;
82473;SDS011;72350;53.232;6.556;2024-02-28T05:32:11;36.83;;;20.73;;
82473;SDS011;72350;53.232;6.556;2024-02-28T05:34:41;36.53;;;19.92;;
82473;SDS011;72350;53.232;6.556;2024-02-28T05:37:09;35.55;;;20.27;;
82473;SDS011;72350;53.232;6.556;2024-02-28T05:39:38;37.17;;;20.38;;
82473;SDS011;72350;53.232;6.556;2024-02-28T05:42:06;37.25;;;20.42;;
82473;SDS011;72350;53.232;6.556;2024-02-28T05:44:34;40.67;;;21.92;;
82473;SDS011;72350;53.232;6.556;2024-02-28T05:47:02;36.25;;;21.35;;
82473;SDS011;72350;53.232;6.556;2024-02-28T05:49:29;41.38;;;22.08;;
82473;SDS011;72350;53.232;6.556;2024-02-28T05:51:59;41.78;;;21.00;;
82473;SDS011;72350;53.232;6.556;2024-02-28T05:54:27;42.20;;;23.02;;
82473;SDS011;72350;53.232;6.556;2024-02-28T05:56:56;40.35;;;21.45;;
82473;SDS011;72350;53.232;6.556;2024-02-28T05:59:24;38.67;;;21.65;;
82473;SDS011;72350;53.232;6.556;2024-02-28T06:01:52;37.58;;;22.23;;
82473;SDS011;72350;53.232;6.556;2024-02-28T06:04:21;42.42;;;22.50;;
82473;SDS011;72350;53.232;6.556;2024-02-28T06:06:49;41.10;;;22.02;;
82473;SDS011;72350;53.232;6.556;2024-02-28T06:09:18;62.28;;;29.77;;
82473;SDS011;72350;53.232;6.556;2024-02-28T06:11:46;44.40;;;23.77;;
82473;SDS011;72350;53.232;6.556;2024-02-28T06:14:15;43.03;;;22.35;;
82473;SDS011;72350;53.232;6.556;2024-02-28T06:16:43;40.53;;;22.77;;
82473;SDS011;72350;53.232;6.556;2024-02-28T06:19:14;43.55;;;22.13;;
82473;SDS011;72350;53.232;6.556;2024-02-28T06:21:42;42.35;;;22.67;;
82473;SDS011;72350;53.232;6.556;2024-02-28T06:24:10;40.47;;;21.75;;
82473;SDS011;72350;53.232;6.556;2024-02-28T06:26:39;44.38;;;23.55;;
82473;SDS011;72350;53.232;6.556;2024-02-28T06:29:09;43.10;;;22.13;;
82473;SDS011;72350;53.232;6.556;2024-02-28T06:31:38;47.65;;;23.70;;
82473;SDS011;72350;53.232;6.556;2024-02-28T06:34:06;47.88;;;23.90;;
82473;SDS011;72350;53.232;6.556;2024-02-28T06:36:36;48.95;;;25.27;;
82473;SDS011;72350;53.232;6.556;2024-02-28T06:39:04;43.05;;;22.75;;
82473;SDS011;72350;53.232;6.556;2024-02-28T06:41:32;47.03;;;24.35;;
82473;SDS011;72350;53.232;6.556;2024-02-28T06:44:01;48.67;;;24.17;;
82473;SDS011;72350;53.232;6.556;2024-02-28T06:46:29;45.53;;;23.15;;
82473;SDS011;72350;53.232;6.556;2024-02-28T06:48:57;48.25;;;24.52;;
82473;SDS011;72350;53.232;6.556;2024-02-28T06:51:25;47.83;;;23.42;;
82473;SDS011;72350;53.232;6.556;2024-02-28T06:53:53;44.92;;;23.75;;
82473;SDS011;72350;53.232;6.556;2024-02-28T06:56:21;49.47;;;24.88;;
82473;SDS011;72350;53.232;6.556;2024-02-28T06:58:49;48.88;;;24.02;;
82473;SDS011;72350;53.232;6.556;2024-02-28T07:01:18;51.95;;;24.17;;
82473;SDS011;72350;53.232;6.556;2024-02-28T07:03:47;55.83;;;27.08;;
82473;SDS011;72350;53.232;6.556;2024-02-28T07:06:15;57.95;;;25.25;;
82473;SDS011;72350;53.232;6.556;2024-02-28T07:08:43;54.75;;;24.65;;
82473;SDS011;72350;53.232;6.556;2024-02-28T07:11:13;52.97;;;23.77;;
82473;SDS011;72350;53.232;6.556;2024-02-28T07:13:41;66.57;;;27.65;;
82473;SDS011;72350;53.232;6.556;2024-02-28T07:16:09;50.70;;;23.15;;
82473;SDS011;72350;53.232;6.556;2024-02-28T07:18:39;57.70;;;26.25;;
82473;SDS011;72350;53.232;6.556;2024-02-28T07:21:06;54.65;;;24.48;;
82473;SDS011;72350;53.232;6.556;2024-02-28T07:23:34;54.85;;;25.08;;
82473;SDS011;72350;53.232;6.556;2024-02-28T07:26:02;55.25;;;25.40;;
82473;SDS011;72350;53.232;6.556;2024-02-28T07:28:44;63.42;;;27.67;;
82473;SDS011;72350;53.232;6.556;2024-02-28T07:31:15;61.22;;;27.35;;
82473;SDS011;72350;53.232;6.556;2024-02-28T07:33:45;53.25;;;26.90;;
82473;SDS011;72350;53.232;6.556;2024-02-28T07:36:13;58.05;;;26.52;;
82473;SDS011;72350;53.232;6.556;2024-02-28T07:38:42;53.42;;;26.30;;
82473;SDS011;72350;53.232;6.556;2024-02-28T07:41:09;58.00;;;26.55;;
82473;SDS011;72350;53.232;6.556;2024-02-28T07:43:41;58.70;;;27.92;;
82473;SDS011;72350;53.232;6.556;2024-02-28T07:46:09;84.95;;;38.78;;
82473;SDS011;72350;53.232;6.556;2024-02-28T07:48:38;58.60;;;27.42;;
82473;SDS011;72350;53.232;6.556;2024-02-28T07:51:08;52.90;;;25.27;;
82473;SDS011;72350;53.232;6.556;2024-02-28T07:53:37;58.75;;;27.02;;
82473;SDS011;72350;53.232;6.556;2024-02-28T07:56:06;54.58;;;27.88;;
82473;SDS011;72350;53.232;6.556;2024-02-28T07:58:34;51.58;;;24.15;;
82473;SDS011;72350;53.232;6.556;2024-02-28T08:01:02;50.17;;;25.42;;
82473;SDS011;72350;53.232;6.556;2024-02-28T08:03:31;51.42;;;26.20;;
82473;SDS011;72350;53.232;6.556;2024-02-28T08:05:59;48.67;;;26.70;;
82473;SDS011;72350;53.232;6.556;2024-02-28T08:08:28;47.33;;;23.83;;
82473;SDS011;72350;53.232;6.556;2024-02-28T08:10:56;51.15;;;25.17;;
82473;SDS011;72350;53.232;6.556;2024-02-28T08:13:24;42.92;;;23.58;;
82473;SDS011;72350;53.232;6.556;2024-02-28T08:15:54;43.40;;;21.70;;
82473;SDS011;72350;53.232;6.556;2024-02-28T08:18:22;44.13;;;24.40;;
82473;SDS011;72350;53.232;6.556;2024-02-28T08:20:50;45.42;;;23.88;;
82473;SDS011;72350;53.232;6.556;2024-02-28T08:23:19;41.22;;;23.80;;
82473;SDS011;72350;53.232;6.556;2024-02-28T08:25:49;39.83;;;22.20;;
82473;SDS011;72350;53.232;6.556;2024-02-28T08:28:17;38.03;;;22.23;;
82473;SDS011;72350;53.232;6.556;2024-02-28T08:30:45;48.60;;;25.83;;
82473;SDS011;72350;53.232;6.556;2024-02-28T08:33:13;48.20;;;23.30;;
82473;SDS011;72350;53.232;6.556;2024-02-28T08:35:44;41.08;;;23.35;;
82473;SDS011;72350;53.232;6.556;2024-02-28T08:38:12;42.63;;;22.65;;
82473;SDS011;72350;53.232;6.556;2024-02-28T08:40:40;39.47;;;23.00;;
82473;SDS011;72350;53.232;6.556;2024-02-28T08:43:10;42.47;;;23.10;;
82473;SDS011;72350;53.232;6.556;2024-02-28T08:45:38;48.03;;;24.73;;
82473;SDS011;72350;53.232;6.556;2024-02-28T08:48:06;40.50;;;23.08;;
82473;SDS011;72350;53.232;6.556;2024-02-28T08:50:35;44.97;;;25.55;;
82473;SDS011;72350;53.232;6.556;2024-02-28T08:53:03;36.67;;;22.45;;
82473;SDS011;72350;53.232;6.556;2024-02-28T08:55:31;38.75;;;22.25;;
82473;SDS011;72350;53.232;6.556;2024-02-28T08:57:59;48.30;;;23.00;;
82473;SDS011;72350;53.232;6.556;2024-02-28T09:00:28;42.90;;;23.98;;
82473;SDS011;72350;53.232;6.556;2024-02-28T09:02:57;41.67;;;24.40;;
82473;SDS011;72350;53.232;6.556;2024-02-28T09:05:25;39.20;;;23.08;;
82473;SDS011;72350;53.232;6.556;2024-02-28T09:07:52;42.05;;;24.52;;
82473;SDS011;72350;53.232;6.556;2024-02-28T09:10:21;44.55;;;23.30;;
82473;SDS011;72350;53.232;6.556;2024-02-28T09:12:51;41.58;;;22.75;;
82473;SDS011;72350;53.232;6.556;2024-02-28T09:15:19;39.90;;;23.08;;
82473;SDS011;72350;53.232;6.556;2024-02-28T09:17:49;37.35;;;22.90;;
82473;SDS011;72350;53.232;6.556;2024-02-28T09:20:17;43.58;;;23.73;;
82473;SDS011;72350;53.232;6.556;2024-02-28T09:22:46;42.17;;;21.92;;
82473;SDS011;72350;53.232;6.556;2024-02-28T09:25:14;35.35;;;20.92;;
82473;SDS011;72350;53.232;6.556;2024-02-28T09:27:45;44.17;;;24.50;;
82473;SDS011;72350;53.232;6.556;2024-02-28T09:30:13;41.70;;;22.88;;
82473;SDS011;72350;53.232;6.556;2024-02-28T09:32:42;42.05;;;22.50;;
82473;SDS011;72350;53.232;6.556;2024-02-28T09:35:12;36.92;;;22.23;;
82473;SDS011;72350;53.232;6.556;2024-02-28T09:37:39;42.65;;;23.25;;
82473;SDS011;72350;53.232;6.556;2024-02-28T09:40:08;42.75;;;23.55;;
82473;SDS011;72350;53.232;6.556;2024-02-28T09:42:37;40.50;;;23.70;;
82473;SDS011;72350;53.232;6.556;2024-02-28T09:45:06;39.03;;;22.80;;
82473;SDS011;72350;53.232;6.556;2024-02-28T09:47:37;37.65;;;22.38;;
82473;SDS011;72350;53.232;6.556;2024-02-28T09:50:06;41.42;;;23.48;;
82473;SDS011;72350;53.232;6.556;2024-02-28T09:52:37;39.63;;;23.20;;
82473;SDS011;72350;53.232;6.556;2024-02-28T09:55:05;43.88;;;24.58;;
82473;SDS011;72350;53.232;6.556;2024-02-28T09:57:33;40.30;;;22.35;;
82473;SDS011;72350;53.232;6.556;2024-02-28T10:00:04;42.55;;;23.00;;
82473;SDS011;72350;53.232;6.556;2024-02-28T10:02:36;36.47;;;21.83;;
82473;SDS011;72350;53.232;6.556;2024-02-28T10:05:06;46.88;;;23.63;;
82473;SDS011;72350;53.232;6.556;2024-02-28T10:07:36;40.63;;;24.77;;
82473;SDS011;72350;53.232;6.556;2024-02-28T10:10:05;43.40;;;25.58;;
82473;SDS011;72350;53.232;6.556;2024-02-28T10:12:36;37.42;;;23.02;;
82473;SDS011;72350;53.232;6.556;2024-02-28T10:15:08;37.83;;;22.50;;
82473;SDS011;72350;53.232;6.556;2024-02-28T10:17:37;39.42;;;23.95;;
82473;SDS011;72350;53.232;6.556;2024-02-28T10:20:05;39.55;;;23.08;;
82473;SDS011;72350;53.232;6.556;2024-02-28T10:22:37;39.75;;;23.38;;
82473;SDS011;72350;53.232;6.556;2024-02-28T10:25:05;38.38;;;22.98;;
82473;SDS011;72350;53.232;6.556;2024-02-28T10:27:33;36.63;;;23.25;;
82473;SDS011;72350;53.232;6.556;2024-02-28T10:30:03;39.85;;;23.42;;
82473;SDS011;72350;53.232;6.556;2024-02-28T10:32:32;36.45;;;23.38;;
82473;SDS011;72350;53.232;6.556;2024-02-28T10:35:03;43.03;;;24.45;;
82473;SDS011;72350;53.232;6.556;2024-02-28T10:37:39;43.83;;;24.63;;
82473;SDS011;72350;53.232;6.556;2024-02-28T10:40:07;36.47;;;22.63;;
82473;SDS011;72350;53.232;6.556;2024-02-28T10:42:39;38.75;;;22.08;;
82473;SDS011;72350;53.232;6.556;2024-02-28T10:45:09;35.50;;;22.75;;
82473;SDS011;72350;53.232;6.556;2024-02-28T10:47:55;39.30;;;23.58;;
82473;SDS011;72350;53.232;6.556;2024-02-28T10:50:24;39.65;;;24.15;;
82473;SDS011;72350;53.232;6.556;2024-02-28T10:52:53;43.45;;;25.80;;
82473;SDS011;72350;53.232;6.556;2024-02-28T10:55:27;35.63;;;22.13;;
82473;SDS011;72350;53.232;6.556;2024-02-28T10:58:01;37.55;;;24.13;;
82473;SDS011;72350;53.232;6.556;2024-02-28T11:00:31;42.83;;;24.33;;
82473;SDS011;72350;53.232;6.556;2024-02-28T11:03:00;38.35;;;23.80;;
82473;SDS011;72350;53.232;6.556;2024-02-28T11:05:35;36.92;;;21.95;;
82473;SDS011;72350;53.232;6.556;2024-02-28T11:08:07;39.35;;;24.80;;
82473;SDS011;72350;53.232;6.556;2024-02-28T11:10:40;36.40;;;22.92;;
82473;SDS011;72350;53.232;6.556;2024-02-28T11:13:09;37.83;;;23.88;;
82473;SDS011;72350;53.232;6.556;2024-02-28T11:15:37;44.63;;;25.55;;
82473;SDS011;72350;53.232;6.556;2024-02-28T11:18:08;40.30;;;23.88;;
82473;SDS011;72350;53.232;6.556;2024-02-28T11:20:37;38.10;;;22.63;;
82473;SDS011;72350;53.232;6.556;2024-02-28T11:23:07;34.88;;;21.90;;
82473;SDS011;72350;53.232;6.556;2024-02-28T11:25:35;32.30;;;20.63;;
82473;SDS011;72350;53.232;6.556;2024-02-28T11:28:03;37.22;;;22.55;;
82473;SDS011;72350;53.232;6.556;2024-02-28T11:30:33;39.67;;;21.83;;
82473;SDS011;72350;53.232;6.556;2024-02-28T11:33:01;40.80;;;23.13;;
82473;SDS011;72350;53.232;6.556;2024-02-28T11:35:32;38.72;;;22.88;;
82473;SDS011;72350;53.232;6.556;2024-02-28T11:38:03;31.17;;;20.98;;
82473;SDS011;72350;53.232;6.556;2024-02-28T11:40:36;33.30;;;21.33;;
82473;SDS011;72350;53.232;6.556;2024-02-28T11:43:04;32.30;;;21.65;;
82473;SDS011;72350;53.232;6.556;2024-02-28T11:45:38;33.78;;;21.15;;
82473;SDS011;72350;53.232;6.556;2024-02-28T11:48:07;34.15;;;21.48;;
82473;SDS011;72350;53.232;6.556;2024-02-28T11:50:37;31.15;;;20.55;;
82473;SDS011;72350;53.232;6.556;2024-02-28T11:53:05;33.80;;;20.35;;
82473;SDS011;72350;53.232;6.556;2024-02-28T11:55:35;36.00;;;21.13;;
82473;SDS011;72350;53.232;6.556;2024-02-28T11:58:07;34.08;;;21.48;;
82473;SDS011;72350;53.232;6.556;2024-02-28T12:00:45;30.73;;;19.48;;
82473;SDS011;72350;53.232;6.556;2024-02-28T12:03:14;34.17;;;20.77;;
82473;SDS011;72350;53.232;6.556;2024-02-28T12:05:47;33.45;;;21.08;;
82473;SDS011;72350;53.232;6.556;2024-02-28T12:08:15;34.15;;;19.70;;
82473;SDS011;72350;53.232;6.556;2024-02-28T12:10:47;36.80;;;22.05;;
82473;SDS011;72350;53.232;6.556;2024-02-28T12:13:16;35.10;;;21.55;;
82473;SDS011;72350;53.232;6.556;2024-02-28T12:15:44;35.58;;;21.55;;
82473;SDS011;72350;53.232;6.556;2024-02-28T12:18:15;39.30;;;22.75;;
82473;SDS011;72350;53.232;6.556;2024-02-28T12:20:43;37.95;;;22.25;;
82473;SDS011;72350;53.232;6.556;2024-02-28T12:23:12;38.50;;;23.23;;
82473;SDS011;72350;53.232;6.556;2024-02-28T12:25:39;39.88;;;23.42;;
82473;SDS011;72350;53.232;6.556;2024-02-28T12:28:09;41.90;;;23.85;;
82473;SDS011;72350;53.232;6.556;2024-02-28T12:30:39;39.38;;;24.17;;
82473;SDS011;72350;53.232;6.556;2024-02-28T12:33:08;35.83;;;23.90;;
82473;SDS011;72350;53.232;6.556;2024-02-28T12:35:37;37.10;;;24.08;;
82473;SDS011;72350;53.232;6.556;2024-02-28T12:38:05;41.03;;;24.83;;
82473;SDS011;72350;53.232;6.556;2024-02-28T12:40:33;37.67;;;23.45;;
82473;SDS011;72350;53.232;6.556;2024-02-28T12:43:01;39.22;;;24.25;;
82473;SDS011;72350;53.232;6.556;2024-02-28T12:45:31;40.20;;;24.95;;
82473;SDS011;72350;53.232;6.556;2024-02-28T12:47:59;37.78;;;23.83;;
82473;SDS011;72350;53.232;6.556;2024-02-28T12:50:27;39.85;;;24.42;;
82473;SDS011;72350;53.232;6.556;2024-02-28T12:52:55;41.95;;;24.73;;
82473;SDS011;72350;53.232;6.556;2024-02-28T12:55:24;37.00;;;24.23;;
82473;SDS011;72350;53.232;6.556;2024-02-28T12:57:51;33.95;;;23.50;;
82473;SDS011;72350;53.232;6.556;2024-02-28T13:00:20;41.67;;;24.85;;
82473;SDS011;72350;53.232;6.556;2024-02-28T13:02:50;38.70;;;24.33;;
82473;SDS011;72350;53.232;6.556;2024-02-28T13:05:19;39.38;;;25.00;;
82473;SDS011;72350;53.232;6.556;2024-02-28T13:07:47;33.25;;;22.35;;
82473;SDS011;72350;53.232;6.556;2024-02-28T13:10:15;37.70;;;22.77;;
82473;SDS011;72350;53.232;6.556;2024-02-28T13:12:44;33.10;;;23.48;;
82473;SDS011;72350;53.232;6.556;2024-02-28T13:15:12;39.17;;;23.35;;
82473;SDS011;72350;53.232;6.556;2024-02-28T13:17:40;33.15;;;21.65;;
82473;SDS011;72350;53.232;6.556;2024-02-28T13:20:10;36.92;;;22.38;;
82473;SDS011;72350;53.232;6.556;2024-02-28T13:22:38;32.17;;;22.35;;
82473;SDS011;72350;53.232;6.556;2024-02-28T13:25:06;34.33;;;22.95;;
82473;SDS011;72350;53.232;6.556;2024-02-28T13:27:35;33.28;;;22.40;;
82473;SDS011;72350;53.232;6.556;2024-02-28T13:30:03;36.38;;;22.88;;
82473;SDS011;72350;53.232;6.556;2024-02-28T13:32:32;36.78;;;21.75;;
82473;SDS011;72350;53.232;6.556;2024-02-28T13:35:00;34.55;;;23.15;;
82473;SDS011;72350;53.232;6.556;2024-02-28T13:37:29;35.25;;;22.90;;
82473;SDS011;72350;53.232;6.556;2024-02-28T13:39:59;34.28;;;21.15;;
82473;SDS011;72350;53.232;6.556;2024-02-28T13:42:27;28.30;;;20.55;;
82473;SDS011;72350;53.232;6.556;2024-02-28T13:44:55;32.20;;;20.88;;
82473;SDS011;72350;53.232;6.556;2024-02-28T13:47:23;31.73;;;20.40;;
82473;SDS011;72350;53.232;6.556;2024-02-28T13:49:51;29.75;;;20.92;;
82473;SDS011;72350;53.232;6.556;2024-02-28T13:52:19;31.75;;;20.65;;
82473;SDS011;72350;53.232;6.556;2024-02-28T13:54:48;32.45;;;21.15;;
82473;SDS011;72350;53.232;6.556;2024-02-28T13:57:17;30.92;;;20.42;;
82473;SDS011;72350;53.232;6.556;2024-02-28T13:59:46;31.77;;;20.95;;
82473;SDS011;72350;53.232;6.556;2024-02-28T14:02:15;31.38;;;21.10;;
82473;SDS011;72350;53.232;6.556;2024-02-28T14:04:44;30.25;;;21.10;;
82473;SDS011;72350;53.232;6.556;2024-02-28T14:07:15;30.55;;;19.60;;
82473;SDS011;72350;53.232;6.556;2024-02-28T14:09:43;33.08;;;22.02;;
82473;SDS011;72350;53.232;6.556;2024-02-28T14:12:14;28.23;;;21.08;;
82473;SDS011;72350;53.232;6.556;2024-02-28T14:14:41;32.05;;;20.20;;
82473;SDS011;72350;53.232;6.556;2024-02-28T14:17:09;28.75;;;20.55;;
82473;SDS011;72350;53.232;6.556;2024-02-28T14:19:37;28.83;;;21.08;;
82473;SDS011;72350;53.232;6.556;2024-02-28T14:22:05;30.35;;;20.88;;
82473;SDS011;72350;53.232;6.556;2024-02-28T14:24:36;28.70;;;20.63;;
82473;SDS011;72350;53.232;6.556;2024-02-28T14:27:04;29.92;;;19.83;;
82473;SDS011;72350;53.232;6.556;2024-02-28T14:29:34;30.13;;;20.98;;